createdAt,value
2019-06-04T00:01:31.180Z,19.02
2019-06-04T00:04:01.218Z,19.00
2019-06-04T00:06:31.857Z,18.99
2019-06-04T00:09:02.577Z,18.98
2019-06-04T00:11:32.219Z,18.96
2019-06-04T00:14:03.130Z,18.95
2019-06-04T00:16:32.839Z,18.89
2019-06-04T00:19:03.500Z,18.83
2019-06-04T00:21:33.053Z,18.77
2019-06-04T00:24:02.771Z,18.74
2019-06-04T00:26:32.398Z,18.70
2019-06-04T00:29:02.153Z,18.68
2019-06-04T00:31:35.186Z,18.67
2019-06-04T00:34:04.471Z,18.64
2019-06-04T00:36:34.159Z,18.64
2019-06-04T00:39:05.422Z,18.56
2019-06-04T00:41:35.266Z,18.52
2019-06-04T00:44:05.477Z,18.50
2019-06-04T00:46:35.051Z,18.50
2019-06-04T00:49:05.218Z,18.51
2019-06-04T00:51:35.148Z,18.50
2019-06-04T00:54:05.137Z,18.49
2019-06-04T00:56:34.773Z,18.49
2019-06-04T00:59:04.244Z,18.43
2019-06-04T01:01:52.244Z,18.42
2019-06-04T01:04:08.453Z,18.35
2019-06-04T01:06:36.130Z,18.35
2019-06-04T01:09:08.073Z,18.34
2019-06-04T01:11:37.570Z,18.34
2019-06-04T01:14:08.373Z,18.26
2019-06-04T01:16:38.158Z,18.26
2019-06-04T01:19:08.796Z,18.23
2019-06-04T01:21:38.430Z,18.15
2019-06-04T01:24:07.912Z,18.08
2019-06-04T01:26:37.332Z,17.98
2019-06-04T01:29:07.870Z,18.01
2019-06-04T01:31:37.607Z,17.99
2019-06-04T01:34:08.299Z,17.98
2019-06-04T01:36:38.082Z,17.87
2019-06-04T01:39:08.956Z,17.83
2019-06-04T01:41:38.598Z,17.89
2019-06-04T01:44:09.426Z,17.83
2019-06-04T01:46:39.082Z,17.83
2019-06-04T01:49:08.982Z,17.82
2019-06-04T01:51:39.769Z,17.74
2019-06-04T01:54:10.256Z,17.74
2019-06-04T01:56:40.011Z,17.77
2019-06-04T01:59:09.483Z,17.79
2019-06-04T02:01:38.800Z,17.79
2019-06-04T02:04:09.360Z,17.74
2019-06-04T02:06:38.887Z,17.76
2019-06-04T02:09:08.370Z,17.73
2019-06-04T02:11:37.841Z,17.72
2019-06-04T02:14:07.237Z,17.67
2019-06-04T02:16:36.634Z,17.68
2019-06-04T02:19:06.062Z,17.64
2019-06-04T02:21:35.823Z,17.58
2019-06-04T02:24:05.802Z,17.58
2019-06-04T02:26:35.492Z,17.58
2019-06-04T02:29:06.161Z,17.58
2019-06-04T02:31:35.741Z,17.58
2019-06-04T02:34:06.615Z,17.53
2019-06-04T02:36:36.210Z,17.53
2019-06-04T02:39:07.956Z,17.51
2019-06-04T02:41:37.540Z,17.50
2019-06-04T02:44:07.683Z,17.49
2019-06-04T02:46:37.362Z,17.46
2019-06-04T02:49:06.984Z,17.41
2019-06-04T02:51:37.544Z,17.35
2019-06-04T02:54:07.543Z,17.40
2019-06-04T02:56:37.206Z,17.41
2019-06-04T02:59:07.949Z,17.40
2019-06-04T03:01:37.580Z,17.42
2019-06-04T03:04:08.276Z,17.41
2019-06-04T03:06:57.389Z,17.35
2019-06-04T03:09:26.872Z,17.33
2019-06-04T03:11:56.274Z,17.28
2019-06-04T03:14:25.664Z,17.24
2019-06-04T03:16:55.099Z,17.18
2019-06-04T03:19:24.560Z,17.15
2019-06-04T03:21:53.954Z,17.13
2019-06-04T03:24:23.395Z,17.13
2019-06-04T03:26:52.888Z,17.16
2019-06-04T03:29:22.352Z,17.17
2019-06-04T03:31:51.709Z,17.19
2019-06-04T03:34:23.732Z,17.21
2019-06-04T03:36:52.248Z,17.25
2019-06-04T03:39:22.272Z,17.28
2019-06-04T03:41:51.772Z,17.34
2019-06-04T03:44:21.899Z,17.36
2019-06-04T03:46:51.609Z,17.34
2019-06-04T03:49:22.325Z,17.37
2019-06-04T03:51:51.948Z,17.39
2019-06-04T03:54:21.359Z,17.40
2019-06-04T03:56:50.835Z,17.43
2019-06-04T03:59:20.299Z,17.43
2019-06-04T04:01:49.792Z,17.49
2019-06-04T04:04:20.298Z,17.55
2019-06-04T04:06:49.943Z,17.58
2019-06-04T04:09:20.515Z,17.60
2019-06-04T04:11:50.085Z,17.63
2019-06-04T04:14:20.820Z,17.59
2019-06-04T04:16:51.718Z,17.63
2019-06-04T04:19:21.190Z,17.67
2019-06-04T04:21:50.657Z,17.65
2019-06-04T04:24:20.750Z,17.71
2019-06-04T04:26:50.312Z,17.71
2019-06-04T04:29:19.727Z,17.76
2019-06-04T04:31:49.223Z,17.78
2019-06-04T04:34:30.331Z,17.79
2019-06-04T04:36:49.880Z,17.85
2019-06-04T04:39:19.546Z,17.90
2019-06-04T04:41:49.032Z,17.96
2019-06-04T04:44:18.540Z,17.96
2019-06-04T04:46:48.188Z,17.97
2019-06-04T04:49:19.946Z,18.00
2019-06-04T04:51:48.817Z,18.12
2019-06-04T04:54:19.344Z,18.21
2019-06-04T04:56:48.938Z,18.21
2019-06-04T04:59:19.489Z,18.32
2019-06-04T05:01:49.114Z,18.44
2019-06-04T05:04:19.753Z,18.51
2019-06-04T05:06:49.349Z,18.55
2019-06-04T05:09:20.012Z,18.58
2019-06-04T05:11:49.529Z,18.62
2019-06-04T05:14:18.997Z,18.72
2019-06-04T05:16:48.418Z,18.81
2019-06-04T05:19:17.889Z,18.98
2019-06-04T05:21:50.061Z,19.07
2019-06-04T05:25:50.676Z,19.19
2019-06-04T05:28:21.426Z,19.40
2019-06-04T05:30:51.045Z,19.45
2019-06-04T05:33:21.862Z,19.52
2019-06-04T05:35:51.485Z,19.58
2019-06-04T05:38:22.114Z,19.69
2019-06-04T05:40:51.665Z,19.76
2019-06-04T05:43:22.430Z,19.80
2019-06-04T05:45:51.998Z,19.83
2019-06-04T05:48:22.466Z,19.84
2019-06-04T05:50:52.075Z,19.91
2019-06-04T05:53:22.726Z,20.03
2019-06-04T05:55:52.322Z,20.06
2019-06-04T05:58:22.864Z,20.12
2019-06-04T06:00:52.494Z,20.18
2019-06-04T06:03:23.152Z,20.21
2019-06-04T06:05:52.675Z,20.25
2019-06-04T06:08:23.978Z,20.33
2019-06-04T06:10:53.292Z,20.37
2019-06-04T06:13:23.881Z,20.38
2019-06-04T06:15:53.411Z,20.40
2019-06-04T06:18:23.877Z,20.53
2019-06-04T06:20:53.511Z,20.54
2019-06-04T06:23:24.178Z,20.57
2019-06-04T06:25:53.685Z,20.63
2019-06-04T06:28:24.201Z,20.76
2019-06-04T06:30:53.876Z,20.86
2019-06-04T06:33:25.805Z,20.99
2019-06-04T06:35:54.593Z,21.07
2019-06-04T06:38:25.113Z,21.14
2019-06-04T06:40:54.829Z,21.24
2019-06-04T06:43:25.463Z,21.32
2019-06-04T06:45:54.971Z,21.29
2019-06-04T06:48:24.488Z,21.39
2019-06-04T06:50:53.868Z,21.50
2019-06-04T06:53:23.297Z,21.56
2019-06-04T06:55:53.007Z,21.60
2019-06-04T06:58:22.479Z,21.71
2019-06-04T07:01:01.248Z,21.89
2019-06-04T07:03:30.941Z,21.94
2019-06-04T07:06:01.325Z,21.99
2019-06-04T07:08:32.109Z,22.07
2019-06-04T07:11:07.889Z,22.21
2019-06-04T07:13:33.672Z,22.30
2019-06-04T07:16:04.449Z,22.37
2019-06-04T07:18:34.179Z,22.47
2019-06-04T07:21:05.137Z,22.57
2019-06-04T07:23:34.960Z,22.73
2019-06-04T07:26:04.583Z,22.89
2019-06-04T07:28:35.361Z,22.93
2019-06-04T07:31:05.002Z,22.92
2019-06-04T07:33:35.007Z,22.93
2019-06-04T07:36:22.883Z,22.96
2019-06-04T07:38:37.175Z,23.02
2019-06-04T07:41:06.846Z,23.10
2019-06-04T07:43:42.904Z,23.18
2019-06-04T07:46:07.459Z,23.21
2019-06-04T07:48:42.015Z,23.33
2019-06-04T07:51:08.319Z,23.49
2019-06-04T07:53:37.825Z,23.62
2019-06-04T07:56:07.314Z,23.79
2019-06-04T07:58:38.072Z,23.97
2019-06-04T08:01:07.713Z,24.04
2019-06-04T08:03:39.806Z,24.14
2019-06-04T08:06:08.370Z,24.30
2019-06-04T08:08:40.626Z,24.46
2019-06-04T08:11:08.949Z,24.70
2019-06-04T08:13:39.619Z,24.80
2019-06-04T08:16:09.409Z,24.90
2019-06-04T08:18:39.808Z,25.00
2019-06-04T08:21:09.355Z,25.13
2019-06-04T08:23:39.986Z,25.24
2019-06-04T08:26:10.378Z,25.39
2019-06-04T08:28:40.363Z,25.50
2019-06-04T08:31:10.052Z,25.68
2019-06-04T08:33:40.630Z,25.78
2019-06-04T08:36:10.266Z,25.92
2019-06-04T08:38:44.408Z,26.10
2019-06-04T08:41:10.837Z,26.17
2019-06-04T08:43:41.484Z,26.27
2019-06-04T08:46:11.072Z,26.48
2019-06-04T08:48:41.350Z,26.54
2019-06-04T08:51:11.756Z,26.58
2019-06-04T08:53:42.244Z,26.68
2019-06-04T08:56:12.170Z,26.83
2019-06-04T08:58:41.864Z,26.95
2019-06-04T09:01:11.350Z,27.18
2019-06-04T09:03:41.911Z,27.37
2019-06-04T09:06:11.441Z,27.49
2019-06-04T09:08:42.426Z,27.69
2019-06-04T09:11:12.092Z,27.75
2019-06-04T09:13:43.567Z,27.88
2019-06-04T09:16:12.632Z,27.98
2019-06-04T09:18:42.448Z,28.16
2019-06-04T09:21:12.066Z,28.42
2019-06-04T09:23:43.022Z,28.75
2019-06-04T09:26:12.768Z,28.91
2019-06-04T09:28:43.234Z,29.24
2019-06-04T09:31:12.936Z,29.49
2019-06-04T09:33:43.568Z,29.80
2019-06-04T09:36:13.034Z,30.07
2019-06-04T09:38:43.860Z,30.40
2019-06-04T09:41:13.565Z,30.50
2019-06-04T09:43:44.025Z,30.46
2019-06-04T09:46:13.736Z,30.74
2019-06-04T09:48:44.555Z,31.11
2019-06-04T09:51:14.202Z,31.18
2019-06-04T09:53:44.574Z,31.41
2019-06-04T09:56:14.128Z,31.29
2019-06-04T09:58:44.564Z,31.53
2019-06-04T10:01:14.129Z,31.67
2019-06-04T10:03:43.567Z,32.07
2019-06-04T10:06:13.013Z,32.31
2019-06-04T10:08:43.758Z,31.93
2019-06-04T10:11:13.295Z,31.49
2019-06-04T10:13:43.076Z,31.02
2019-06-04T10:16:13.036Z,30.47
2019-06-04T10:18:43.380Z,30.15
2019-06-04T10:21:12.962Z,30.05
2019-06-04T10:23:42.520Z,30.19
2019-06-04T10:26:24.025Z,30.65
2019-06-04T10:28:47.404Z,31.28
2019-06-04T10:31:14.759Z,31.71
2019-06-04T10:33:44.338Z,31.91
2019-06-04T10:36:13.735Z,31.78
2019-06-04T10:38:43.132Z,31.31
2019-06-04T10:41:12.617Z,30.86
2019-06-04T10:43:42.032Z,30.45
2019-06-04T10:46:11.498Z,30.08
2019-06-04T10:48:40.906Z,29.85
2019-06-04T10:51:14.115Z,29.74
2019-06-04T10:53:41.610Z,30.05
2019-06-04T10:56:11.068Z,30.90
2019-06-04T10:58:40.480Z,32.15
2019-06-04T11:01:09.935Z,33.38
2019-06-04T11:03:39.406Z,34.33
2019-06-04T11:06:08.775Z,34.89
2019-06-04T11:08:48.252Z,34.74
2019-06-04T11:11:09.454Z,33.75
2019-06-04T11:13:38.866Z,33.03
2019-06-04T11:16:08.332Z,32.00
2019-06-04T11:18:37.836Z,31.34
2019-06-04T11:21:07.341Z,30.94
2019-06-04T11:23:36.822Z,30.95
2019-06-04T11:26:06.481Z,30.93
2019-06-04T11:28:36.061Z,30.95
2019-06-04T11:31:05.470Z,30.99
2019-06-04T11:33:34.867Z,31.07
2019-06-04T11:36:05.257Z,30.69
2019-06-04T11:38:35.052Z,30.19
2019-06-04T11:41:04.513Z,29.59
2019-06-04T11:43:33.941Z,28.95
2019-06-04T11:46:03.410Z,28.44
2019-06-04T11:48:32.755Z,28.00
2019-06-04T11:51:02.538Z,27.66
2019-06-04T11:53:33.915Z,27.55
2019-06-04T11:56:03.869Z,27.41
2019-06-04T11:58:33.266Z,27.45
2019-06-04T12:01:14.497Z,27.43
2019-06-04T12:03:35.326Z,27.55
2019-06-04T12:06:04.817Z,27.77
2019-06-04T12:08:34.303Z,27.73
2019-06-04T12:11:03.800Z,27.81
2019-06-04T12:13:35.180Z,28.20
2019-06-04T12:16:04.695Z,29.11
2019-06-04T12:18:38.806Z,30.02
2019-06-04T12:21:16.111Z,30.64
2019-06-04T12:23:41.504Z,30.70
2019-06-04T12:26:10.986Z,30.80
2019-06-04T12:28:40.457Z,31.45
2019-06-04T12:31:09.958Z,31.02
2019-06-04T12:33:39.459Z,30.29
2019-06-04T12:36:09.237Z,29.45
2019-06-04T12:38:38.720Z,28.82
2019-06-04T12:41:08.225Z,28.19
2019-06-04T12:43:37.685Z,27.71
2019-06-04T12:46:08.038Z,27.23
2019-06-04T12:48:37.761Z,27.04
2019-06-04T12:51:07.169Z,26.77
2019-06-04T12:53:36.637Z,26.61
2019-06-04T12:56:06.723Z,26.48
2019-06-04T12:58:36.722Z,26.62
2019-06-04T13:01:06.913Z,27.09
2019-06-04T13:03:36.989Z,27.47
2019-06-04T13:06:07.258Z,27.95
2019-06-04T13:08:37.482Z,28.40
2019-06-04T13:11:07.350Z,28.81
2019-06-04T13:13:37.026Z,29.05
2019-06-04T13:16:06.642Z,29.36
2019-06-04T13:18:36.154Z,29.70
2019-06-04T13:21:06.601Z,29.71
2019-06-04T13:23:36.139Z,30.56
2019-06-04T13:26:05.569Z,32.70
2019-06-04T13:28:35.034Z,32.90
2019-06-04T13:31:05.653Z,31.83
2019-06-04T13:33:35.274Z,31.84
2019-06-04T13:36:05.649Z,32.14
2019-06-04T13:38:36.005Z,34.35
2019-06-04T13:41:06.782Z,36.50
2019-06-04T13:43:36.506Z,36.39
2019-06-04T13:46:07.142Z,36.48
2019-06-04T13:48:36.681Z,36.03
2019-06-04T13:51:06.066Z,35.16
2019-06-04T13:53:35.561Z,33.81
2019-06-04T13:56:06.487Z,32.67
2019-06-04T13:58:36.300Z,31.53
2019-06-04T14:01:06.309Z,30.50
2019-06-04T14:03:36.974Z,29.74
2019-06-04T14:06:07.098Z,29.01
2019-06-04T14:08:36.911Z,28.53
2019-06-04T14:11:07.468Z,28.21
2019-06-04T14:13:36.997Z,27.97
2019-06-04T14:16:06.916Z,27.38
2019-06-04T14:18:37.717Z,26.69
2019-06-04T14:21:08.647Z,26.34
2019-06-04T14:23:38.356Z,26.08
2019-06-04T14:26:30.588Z,25.94
2019-06-04T14:29:00.049Z,25.70
2019-06-04T14:31:29.551Z,25.66
2019-06-04T14:33:59.209Z,25.44
2019-06-04T14:36:28.848Z,25.48
2019-06-04T14:38:58.264Z,25.58
2019-06-04T14:41:27.991Z,25.60
2019-06-04T14:43:57.501Z,25.55
2019-06-04T14:46:27.874Z,25.50
2019-06-04T14:48:57.344Z,25.46
2019-06-04T14:51:27.123Z,25.50
2019-06-04T14:53:56.517Z,25.95
2019-06-04T14:56:26.349Z,26.57
2019-06-04T14:58:55.915Z,27.30
2019-06-04T15:01:25.619Z,28.00
2019-06-04T15:03:55.086Z,29.00
2019-06-04T15:06:24.780Z,29.82
2019-06-04T15:08:54.226Z,30.60
2019-06-04T15:11:41.569Z,31.51
2019-06-04T15:13:54.977Z,32.41
2019-06-04T15:16:24.445Z,32.71
2019-06-04T15:18:53.929Z,33.25
2019-06-04T15:21:23.279Z,33.66
2019-06-04T15:23:52.750Z,34.00
2019-06-04T15:26:24.927Z,34.28
2019-06-04T15:28:53.310Z,34.22
2019-06-04T15:31:22.843Z,33.56
2019-06-04T15:33:52.446Z,33.10
2019-06-04T15:36:26.266Z,33.17
2019-06-04T15:38:53.310Z,32.90
2019-06-04T15:41:23.341Z,32.67
2019-06-04T15:43:53.043Z,32.84
2019-06-04T15:46:23.452Z,33.32
2019-06-04T15:48:53.089Z,33.28
2019-06-04T15:51:23.162Z,33.05
2019-06-04T15:53:53.748Z,32.69
2019-06-04T15:56:23.265Z,32.37
2019-06-04T15:58:52.851Z,32.10
2019-06-04T16:01:23.523Z,31.98
2019-06-04T16:03:53.074Z,32.29
2019-06-04T16:06:22.838Z,32.66
2019-06-04T16:08:52.613Z,33.01
2019-06-04T16:11:23.372Z,32.97
2019-06-04T16:13:52.903Z,32.68
2019-06-04T16:16:23.543Z,32.14
2019-06-04T16:18:53.167Z,31.59
2019-06-04T16:21:23.829Z,31.56
2019-06-04T16:23:53.382Z,31.74
2019-06-04T16:26:24.308Z,31.95
2019-06-04T16:28:53.953Z,32.07
2019-06-04T16:31:24.657Z,32.20
2019-06-04T16:33:54.209Z,31.96
2019-06-04T16:36:24.087Z,32.04
2019-06-04T16:38:53.835Z,32.22
2019-06-04T16:41:24.720Z,32.25
2019-06-04T16:43:54.597Z,32.19
2019-06-04T16:46:24.443Z,32.14
2019-06-04T16:48:54.078Z,32.18
2019-06-04T16:51:24.991Z,31.95
2019-06-04T16:53:54.647Z,31.97
2019-06-04T16:56:25.276Z,31.93
2019-06-04T16:58:54.878Z,31.64
2019-06-04T17:01:25.783Z,30.87
2019-06-04T17:03:55.884Z,30.58
2019-06-04T17:06:25.968Z,30.34
2019-06-04T17:08:55.581Z,30.12
2019-06-04T17:11:26.169Z,29.73
2019-06-04T17:13:55.840Z,29.22
2019-06-04T17:16:26.591Z,28.89
2019-06-04T17:18:56.200Z,28.51
2019-06-04T17:21:26.932Z,28.04
2019-06-04T17:23:56.555Z,27.84
2019-06-04T17:26:25.991Z,27.63
2019-06-04T17:28:55.505Z,27.40
2019-06-04T17:31:25.998Z,27.23
2019-06-04T17:34:26.677Z,27.03
2019-06-04T17:36:56.234Z,26.89
2019-06-04T17:39:27.139Z,26.78
2019-06-04T17:41:56.741Z,26.65
2019-06-04T17:44:27.607Z,26.52
2019-06-04T17:46:57.420Z,26.49
2019-06-04T17:49:27.927Z,26.40
2019-06-04T17:51:57.591Z,26.32
2019-06-04T17:54:27.071Z,26.11
2019-06-04T17:56:56.539Z,25.87
2019-06-04T17:59:26.544Z,25.79
2019-06-04T18:01:56.183Z,25.74
2019-06-04T18:04:27.013Z,25.64
2019-06-04T18:06:56.867Z,25.51
2019-06-04T18:09:27.112Z,25.44
2019-06-04T18:11:56.867Z,25.42
2019-06-04T18:14:27.263Z,25.34
2019-06-04T18:16:56.812Z,25.31
2019-06-04T18:19:27.683Z,25.29
2019-06-04T18:21:57.311Z,25.25
2019-06-04T18:24:28.059Z,25.10
2019-06-04T18:26:58.086Z,24.90
2019-06-04T18:29:27.758Z,24.78
2019-06-04T18:31:57.293Z,24.71
2019-06-04T18:34:26.893Z,24.62
2019-06-04T18:36:56.356Z,24.62
2019-06-04T18:39:26.073Z,24.58
2019-06-04T18:41:55.549Z,24.57
2019-06-04T18:44:25.073Z,24.59
2019-06-04T18:46:54.895Z,24.58
2019-06-04T18:49:24.377Z,24.52
2019-06-04T18:51:53.839Z,24.50
2019-06-04T18:55:08.824Z,24.42
2019-06-04T18:57:38.388Z,24.28
2019-06-04T19:00:07.911Z,24.12
2019-06-04T19:02:38.592Z,23.98
2019-06-04T19:05:08.038Z,23.92
2019-06-04T19:07:39.150Z,23.88
2019-06-04T19:10:10.336Z,23.84
2019-06-04T19:12:41.510Z,23.76
2019-06-04T19:15:14.590Z,23.60
2019-06-04T19:17:44.018Z,23.51
2019-06-04T19:20:15.461Z,23.45
2019-06-04T19:22:45.638Z,23.34
2019-06-04T19:25:15.287Z,23.22
2019-06-04T19:27:45.621Z,23.17
2019-06-04T19:30:15.185Z,23.08
2019-06-04T19:32:46.411Z,23.06
2019-06-04T19:36:01.591Z,23.03
2019-06-04T19:38:31.018Z,23.01
2019-06-04T19:41:00.481Z,23.01
2019-06-04T19:43:29.873Z,22.89
2019-06-04T19:45:59.312Z,22.84
2019-06-04T19:48:29.002Z,22.78
2019-06-04T19:50:58.335Z,22.67
2019-06-04T19:53:27.896Z,22.56
2019-06-04T19:55:57.220Z,22.44
2019-06-04T19:58:27.104Z,22.42
2019-06-04T20:00:56.592Z,22.38
2019-06-04T20:03:26.282Z,22.25
2019-06-04T20:05:56.495Z,22.13
2019-06-04T20:08:26.365Z,22.10
2019-06-04T20:10:55.969Z,22.02
2019-06-04T20:13:39.115Z,21.96
2019-06-04T20:15:56.769Z,21.85
2019-06-04T20:18:26.100Z,21.72
2019-06-04T20:20:55.576Z,21.66
2019-06-04T20:23:25.083Z,21.64
2019-06-04T20:25:54.549Z,21.65
2019-06-04T20:28:24.249Z,21.63
2019-06-04T20:30:53.682Z,21.65
2019-06-04T20:33:23.351Z,21.58
2019-06-04T20:35:52.824Z,21.54
2019-06-04T20:38:22.322Z,21.58
2019-06-04T20:40:51.791Z,21.47
2019-06-04T20:43:21.284Z,21.42
2019-06-04T20:45:50.876Z,21.35
2019-06-04T20:48:20.361Z,21.20
2019-06-04T20:50:51.197Z,21.12
2019-06-04T20:53:21.065Z,21.04
2019-06-04T20:55:51.501Z,21.02
2019-06-04T20:58:21.214Z,20.94
2019-06-04T21:00:51.688Z,20.86
2019-06-04T21:03:21.373Z,20.77
2019-06-04T21:05:51.074Z,20.79
2019-06-04T21:08:20.640Z,20.70
2019-06-04T21:10:51.053Z,20.64
2019-06-04T21:13:20.749Z,20.59
2019-06-04T21:15:51.522Z,20.61
2019-06-04T21:18:21.203Z,20.56
2019-06-04T21:20:52.173Z,20.56
2019-06-04T21:23:21.890Z,20.57
2019-06-04T21:25:51.529Z,20.57
2019-06-04T21:28:20.996Z,20.55
2019-06-04T21:30:52.067Z,20.54
2019-06-04T21:33:21.577Z,20.52
2019-06-04T21:35:52.082Z,20.50
2019-06-04T21:38:21.737Z,20.52
2019-06-04T21:40:51.207Z,20.53
2019-06-04T21:43:20.675Z,20.43
2019-06-04T21:45:51.574Z,20.35
2019-06-04T21:48:21.320Z,20.32
2019-06-04T21:50:51.786Z,20.28
2019-06-04T21:53:21.513Z,20.28
2019-06-04T21:55:51.412Z,20.22
2019-06-04T21:58:22.050Z,20.19
2019-06-04T22:00:51.810Z,20.13
2019-06-04T22:03:21.377Z,20.09
2019-06-04T22:05:51.922Z,20.09
2019-06-04T22:08:21.557Z,20.06
2019-06-04T22:10:52.218Z,20.03
2019-06-04T22:13:21.767Z,20.02
2019-06-04T22:16:05.447Z,19.95
2019-06-04T22:18:22.448Z,19.93
2019-06-04T22:20:52.592Z,19.93
2019-06-04T22:23:22.211Z,19.88
2019-06-04T22:25:53.161Z,19.86
2019-06-04T22:28:22.965Z,19.86
2019-06-04T22:30:52.477Z,19.84
2019-06-04T22:33:21.974Z,19.78
2019-06-04T22:35:52.982Z,19.70
2019-06-04T22:38:22.541Z,19.71
2019-06-04T22:40:52.670Z,19.63
2019-06-04T22:43:23.133Z,19.59
2019-06-04T22:45:53.803Z,19.55
2019-06-04T22:48:23.411Z,19.49
2019-06-04T22:50:53.739Z,19.47
2019-06-04T22:53:23.961Z,19.44
2019-06-04T22:55:54.596Z,19.42
2019-06-04T22:58:24.152Z,19.38
2019-06-04T23:00:54.849Z,19.36
2019-06-04T23:03:24.771Z,19.44
2019-06-04T23:05:54.242Z,19.46
2019-06-04T23:08:23.732Z,19.48
2019-06-04T23:10:54.160Z,19.47
2019-06-04T23:13:24.390Z,19.48
2019-06-04T23:15:55.038Z,19.47
2019-06-04T23:18:24.607Z,19.47
2019-06-04T23:20:54.088Z,19.38
2019-06-04T23:23:24.863Z,19.30
2019-06-04T23:25:54.262Z,19.26
2019-06-04T23:28:23.725Z,19.26
2019-06-04T23:30:54.149Z,19.27
2019-06-04T23:33:23.616Z,19.22
2019-06-04T23:35:53.016Z,19.23
2019-06-04T23:38:22.528Z,19.25
2019-06-04T23:40:51.992Z,19.25
2019-06-04T23:43:21.561Z,19.18
2019-06-04T23:45:51.045Z,19.16
2019-06-04T23:48:20.517Z,19.10
2019-06-04T23:50:49.984Z,19.09
2019-06-04T23:53:19.478Z,19.10
2019-06-04T23:55:48.947Z,19.08
2019-06-04T23:58:18.343Z,19.02
